La Verne, California
Current Conditions -  °F | °C
As of 7:53 PM on Sunday 21 Dec 2014 (Local Time) from KONT Reporting Station
Haze Haze  
Wind Chill: 56°   Ceiling: Unl
Heat Index: 56°   Visibility: 5mi
Dew Point: 49°   Wind: 0mph
Humidity: 77%   Direction: NA
Pressure: 30.06"   Gusts: NA
Location:  34.11°N, 117.76°W
Report Text: KONT 220353Z 00000KT 5SM HZ SCT240 13/09 A3006 RMK AO2 SLP179 T01330094
Loading
Personal Weather Stations






























Interactive Weather Map New forecast layout! Learn more

10-Day Weather Forecast

Advertisements
Track Severe Weather on mobile